OIAM  Mahshahr  Airport

Iran

Add Bookmark
ICAO OIAM
IATA MRX
Type Airport
Status Operational
Latitude
30° 33' 22" N
30.556200
Longitude
49° 9' 6" E
49.151901
Local (DST + 5) UTC (GMT + 4)
Aug 29, 2015 07:29 Aug 29, 2015 02:59
Sunrise-Sunset Local UTC
Begin Civil Twilight 06:22 01:52
Sunrise 06:46 02:16
Sunset 07:41 15:11
End Civil Twilight 08:06 15:36
VFR
VFR
MVFR
MVFR
IFR
IFR
LIFR
LIFR
Unknown
Unavailable

Current Weather

METAR Observed VFR
OIAM 290200Z 30012KT CAVOK 29/18 Q1001 Sat, Aug 29, 2015 @ 02:00 UTC
(59 Minutes ago)
Visual Flight Rules
Wind Visibility Conditions
300° at 12 knots (22 kph) 10 km or more
  • No significant weather
Temperatures Readings Precipitation
Current Temp
29°C
84°F
Dewpoint
18°C
64°F
Heat Index
29°C
85°
Humidity 51%
Altimeter 29.56" Hg
Sea Level Pressure 1,001 mb
Field Elevation
4 m
13 ft
None Recorded

Additional weather within a 92.6km radius of OIAM

Map ICAO Location
OIAG 54.4km E/NE (067°)
VFR
VFR
MVFR
MVFR
IFR
IFR
LIFR
LIFR
Unknown
Unavailable
-
-

CheckWX.com is intended as a tool to help pilots better visualize weather data. It is not intended as a substitute for an official weather briefing obtained from a Flight Service Station. CheckWX.com does not meet the FAA requirements for an official pre-flight weather briefing. Therefore, it's important that pilots still call and obtain an official FSS pre-flight weather briefing.

© 2007-2015 CheckWX.com
02:59:33 UTC